sensor_id;sensor_type;location;lat;lon;timestamp;temperature;humidity
33699;DHT22;20032;52.436;13.312;2023-05-10T00:01:46;13.50;93.40
33699;DHT22;20032;52.436;13.312;2023-05-10T00:04:13;13.40;93.60
33699;DHT22;20032;52.436;13.312;2023-05-10T00:06:38;13.40;93.60
33699;DHT22;20032;52.436;13.312;2023-05-10T00:09:04;13.50;94.00
33699;DHT22;20032;52.436;13.312;2023-05-10T00:11:29;13.40;93.70
33699;DHT22;20032;52.436;13.312;2023-05-10T00:13:55;13.50;93.80
33699;DHT22;20032;52.436;13.312;2023-05-10T00:16:20;13.40;93.90
33699;DHT22;20032;52.436;13.312;2023-05-10T00:18:46;13.50;93.90
33699;DHT22;20032;52.436;13.312;2023-05-10T00:21:11;13.50;93.80
33699;DHT22;20032;52.436;13.312;2023-05-10T00:23:37;13.50;94.10
33699;DHT22;20032;52.436;13.312;2023-05-10T00:26:03;13.40;93.90
33699;DHT22;20032;52.436;13.312;2023-05-10T00:28:28;13.50;94.00
33699;DHT22;20032;52.436;13.312;2023-05-10T00:30:54;13.50;93.90
33699;DHT22;20032;52.436;13.312;2023-05-10T00:33:20;13.40;94.30
33699;DHT22;20032;52.436;13.312;2023-05-10T00:35:46;13.30;94.40
33699;DHT22;20032;52.436;13.312;2023-05-10T00:38:11;13.40;94.20
33699;DHT22;20032;52.436;13.312;2023-05-10T00:40:37;13.40;94.30
33699;DHT22;20032;52.436;13.312;2023-05-10T00:43:03;13.30;94.40
33699;DHT22;20032;52.436;13.312;2023-05-10T00:45:30;13.30;94.50
33699;DHT22;20032;52.436;13.312;2023-05-10T00:47:56;13.30;94.50
33699;DHT22;20032;52.436;13.312;2023-05-10T00:50:22;13.30;94.40
33699;DHT22;20032;52.436;13.312;2023-05-10T00:52:48;13.40;94.50
33699;DHT22;20032;52.436;13.312;2023-05-10T00:55:14;13.30;94.30
33699;DHT22;20032;52.436;13.312;2023-05-10T00:57:40;13.30;94.50
33699;DHT22;20032;52.436;13.312;2023-05-10T01:00:06;13.20;94.40
33699;DHT22;20032;52.436;13.312;2023-05-10T01:02:34;13.20;94.50
33699;DHT22;20032;52.436;13.312;2023-05-10T01:05:00;13.30;94.50
33699;DHT22;20032;52.436;13.312;2023-05-10T01:07:26;13.10;94.80
33699;DHT22;20032;52.436;13.312;2023-05-10T01:09:52;13.20;94.80
33699;DHT22;20032;52.436;13.312;2023-05-10T01:12:17;13.00;95.00
33699;DHT22;20032;52.436;13.312;2023-05-10T01:14:43;13.10;94.90
33699;DHT22;20032;52.436;13.312;2023-05-10T01:17:09;13.10;94.80
33699;DHT22;20032;52.436;13.312;2023-05-10T01:19:36;13.10;94.90
33699;DHT22;20032;52.436;13.312;2023-05-10T01:22:33;13.10;95.00
33699;DHT22;20032;52.436;13.312;2023-05-10T01:25:11;13.20;94.80
33699;DHT22;20032;52.436;13.312;2023-05-10T01:28:05;13.20;94.70
33699;DHT22;20032;52.436;13.312;2023-05-10T01:36:05;13.00;95.10
33699;DHT22;20032;52.436;13.312;2023-05-10T01:38:42;12.90;95.30
33699;DHT22;20032;52.436;13.312;2023-05-10T01:41:31;12.90;95.70
33699;DHT22;20032;52.436;13.312;2023-05-10T01:44:24;12.80;95.80
33699;DHT22;20032;52.436;13.312;2023-05-10T01:46:58;12.80;95.50
33699;DHT22;20032;52.436;13.312;2023-05-10T01:49:30;12.90;95.40
33699;DHT22;20032;52.436;13.312;2023-05-10T01:52:04;12.90;95.50
33699;DHT22;20032;52.436;13.312;2023-05-10T01:54:33;12.80;95.70
33699;DHT22;20032;52.436;13.312;2023-05-10T01:57:03;12.80;95.90
33699;DHT22;20032;52.436;13.312;2023-05-10T01:59:33;12.80;96.10
33699;DHT22;20032;52.436;13.312;2023-05-10T02:02:02;12.60;96.00
33699;DHT22;20032;52.436;13.312;2023-05-10T02:04:30;12.60;96.30
33699;DHT22;20032;52.436;13.312;2023-05-10T02:06:56;12.60;96.40
33699;DHT22;20032;52.436;13.312;2023-05-10T02:09:23;12.60;96.50
33699;DHT22;20032;52.436;13.312;2023-05-10T02:11:51;12.70;96.60
33699;DHT22;20032;52.436;13.312;2023-05-10T02:14:17;12.60;96.60
33699;DHT22;20032;52.436;13.312;2023-05-10T02:16:44;12.60;96.50
33699;DHT22;20032;52.436;13.312;2023-05-10T02:19:12;12.60;96.70
33699;DHT22;20032;52.436;13.312;2023-05-10T02:21:40;12.60;96.60
33699;DHT22;20032;52.436;13.312;2023-05-10T02:24:07;12.50;96.90
33699;DHT22;20032;52.436;13.312;2023-05-10T02:26:34;12.40;97.10
33699;DHT22;20032;52.436;13.312;2023-05-10T02:29:02;12.20;97.60
33699;DHT22;20032;52.436;13.312;2023-05-10T02:31:29;12.20;97.60
33699;DHT22;20032;52.436;13.312;2023-05-10T02:33:56;12.30;97.70
33699;DHT22;20032;52.436;13.312;2023-05-10T02:36:22;12.30;97.90
33699;DHT22;20032;52.436;13.312;2023-05-10T02:38:49;12.20;98.10
33699;DHT22;20032;52.436;13.312;2023-05-10T02:41:17;12.10;98.20
33699;DHT22;20032;52.436;13.312;2023-05-10T02:43:44;12.10;98.30
33699;DHT22;20032;52.436;13.312;2023-05-10T02:46:10;12.10;98.40
33699;DHT22;20032;52.436;13.312;2023-05-10T02:48:36;12.10;98.30
33699;DHT22;20032;52.436;13.312;2023-05-10T02:51:05;12.10;98.40
33699;DHT22;20032;52.436;13.312;2023-05-10T02:53:35;12.00;98.60
33699;DHT22;20032;52.436;13.312;2023-05-10T02:56:04;12.10;98.70
33699;DHT22;20032;52.436;13.312;2023-05-10T02:58:32;12.10;98.80
33699;DHT22;20032;52.436;13.312;2023-05-10T03:00:57;12.00;98.90
33699;DHT22;20032;52.436;13.312;2023-05-10T03:03:23;11.90;99.30
33699;DHT22;20032;52.436;13.312;2023-05-10T03:05:48;11.90;99.70
33699;DHT22;20032;52.436;13.312;2023-05-10T03:08:14;11.80;99.90
33699;DHT22;20032;52.436;13.312;2023-05-10T03:10:50;11.90;99.50
33699;DHT22;20032;52.436;13.312;2023-05-10T03:13:31;11.80;99.50
33699;DHT22;20032;52.436;13.312;2023-05-10T03:16:08;11.80;99.90
33699;DHT22;20032;52.436;13.312;2023-05-10T03:19:27;11.80;99.90
33699;DHT22;20032;52.436;13.312;2023-05-10T03:21:45;11.90;99.90
33699;DHT22;20032;52.436;13.312;2023-05-10T03:24:13;11.80;99.90
33699;DHT22;20032;52.436;13.312;2023-05-10T03:26:41;11.60;99.90
33699;DHT22;20032;52.436;13.312;2023-05-10T03:29:08;11.70;99.90
33699;DHT22;20032;52.436;13.312;2023-05-10T03:31:35;11.70;99.90
33699;DHT22;20032;52.436;13.312;2023-05-10T03:34:00;11.70;99.90
33699;DHT22;20032;52.436;13.312;2023-05-10T03:36:26;11.70;99.90
33699;DHT22;20032;52.436;13.312;2023-05-10T03:38:52;11.70;99.90
33699;DHT22;20032;52.436;13.312;2023-05-10T03:41:17;11.60;99.90
33699;DHT22;20032;52.436;13.312;2023-05-10T03:43:43;11.60;99.90
33699;DHT22;20032;52.436;13.312;2023-05-10T03:46:08;11.60;99.90
33699;DHT22;20032;52.436;13.312;2023-05-10T03:48:33;11.70;99.90
33699;DHT22;20032;52.436;13.312;2023-05-10T03:50:59;11.70;99.90
33699;DHT22;20032;52.436;13.312;2023-05-10T03:53:24;11.60;99.90
33699;DHT22;20032;52.436;13.312;2023-05-10T03:55:50;11.50;99.90
33699;DHT22;20032;52.436;13.312;2023-05-10T03:58:15;11.40;99.90
33699;DHT22;20032;52.436;13.312;2023-05-10T04:00:41;11.50;99.90
33699;DHT22;20032;52.436;13.312;2023-05-10T04:03:10;11.50;99.90
33699;DHT22;20032;52.436;13.312;2023-05-10T04:05:36;11.60;99.90
33699;DHT22;20032;52.436;13.312;2023-05-10T04:08:02;11.60;99.90
33699;DHT22;20032;52.436;13.312;2023-05-10T04:10:28;11.60;99.90
33699;DHT22;20032;52.436;13.312;2023-05-10T04:12:53;11.60;99.90
33699;DHT22;20032;52.436;13.312;2023-05-10T04:15:19;11.60;99.90
33699;DHT22;20032;52.436;13.312;2023-05-10T04:17:44;11.60;99.90
33699;DHT22;20032;52.436;13.312;2023-05-10T04:20:10;11.60;99.90
33699;DHT22;20032;52.436;13.312;2023-05-10T04:22:36;11.60;99.90
33699;DHT22;20032;52.436;13.312;2023-05-10T04:25:02;11.60;99.90
33699;DHT22;20032;52.436;13.312;2023-05-10T04:27:28;11.60;99.90
33699;DHT22;20032;52.436;13.312;2023-05-10T04:29:53;11.60;99.90
33699;DHT22;20032;52.436;13.312;2023-05-10T04:32:19;11.60;99.90
33699;DHT22;20032;52.436;13.312;2023-05-10T04:34:45;11.70;99.90
33699;DHT22;20032;52.436;13.312;2023-05-10T04:37:11;11.80;99.90
33699;DHT22;20032;52.436;13.312;2023-05-10T04:39:36;11.90;99.90
33699;DHT22;20032;52.436;13.312;2023-05-10T04:42:03;11.90;99.90
33699;DHT22;20032;52.436;13.312;2023-05-10T04:44:28;12.00;99.90
33699;DHT22;20032;52.436;13.312;2023-05-10T04:46:54;12.00;99.90
33699;DHT22;20032;52.436;13.312;2023-05-10T04:49:20;12.00;99.90
33699;DHT22;20032;52.436;13.312;2023-05-10T04:51:45;12.00;99.90
33699;DHT22;20032;52.436;13.312;2023-05-10T04:54:11;11.90;99.90
33699;DHT22;20032;52.436;13.312;2023-05-10T04:56:37;12.00;99.90
33699;DHT22;20032;52.436;13.312;2023-05-10T04:59:02;12.10;99.90
33699;DHT22;20032;52.436;13.312;2023-05-10T05:01:28;12.10;99.90
33699;DHT22;20032;52.436;13.312;2023-05-10T05:03:53;12.10;99.90
33699;DHT22;20032;52.436;13.312;2023-05-10T05:06:19;12.20;99.90
33699;DHT22;20032;52.436;13.312;2023-05-10T05:08:46;12.30;99.90
33699;DHT22;20032;52.436;13.312;2023-05-10T05:11:11;12.30;99.90
33699;DHT22;20032;52.436;13.312;2023-05-10T05:13:37;12.50;99.90
33699;DHT22;20032;52.436;13.312;2023-05-10T05:16:03;12.40;99.90
33699;DHT22;20032;52.436;13.312;2023-05-10T05:18:28;12.40;99.90
33699;DHT22;20032;52.436;13.312;2023-05-10T05:20:54;12.60;99.90
33699;DHT22;20032;52.436;13.312;2023-05-10T05:23:19;12.60;99.70
33699;DHT22;20032;52.436;13.312;2023-05-10T05:25:46;12.60;99.60
33699;DHT22;20032;52.436;13.312;2023-05-10T05:28:12;12.70;99.40
33699;DHT22;20032;52.436;13.312;2023-05-10T05:30:37;12.70;99.40
33699;DHT22;20032;52.436;13.312;2023-05-10T05:33:03;12.90;99.20
33699;DHT22;20032;52.436;13.312;2023-05-10T05:35:28;13.00;99.20
33699;DHT22;20032;52.436;13.312;2023-05-10T05:37:54;13.10;98.80
33699;DHT22;20032;52.436;13.312;2023-05-10T05:40:23;13.20;98.90
33699;DHT22;20032;52.436;13.312;2023-05-10T05:42:49;13.20;98.70
33699;DHT22;20032;52.436;13.312;2023-05-10T05:45:15;13.20;98.80
33699;DHT22;20032;52.436;13.312;2023-05-10T05:47:41;13.20;98.70
33699;DHT22;20032;52.436;13.312;2023-05-10T05:50:07;13.30;98.40
33699;DHT22;20032;52.436;13.312;2023-05-10T05:52:32;13.30;98.50
33699;DHT22;20032;52.436;13.312;2023-05-10T05:54:58;13.40;98.60
33699;DHT22;20032;52.436;13.312;2023-05-10T05:57:24;13.50;98.80
33699;DHT22;20032;52.436;13.312;2023-05-10T05:59:49;13.70;98.30
33699;DHT22;20032;52.436;13.312;2023-05-10T06:02:15;13.70;98.00
33699;DHT22;20032;52.436;13.312;2023-05-10T06:04:40;13.80;97.70
33699;DHT22;20032;52.436;13.312;2023-05-10T06:07:06;13.80;97.60
33699;DHT22;20032;52.436;13.312;2023-05-10T06:09:31;14.00;97.50
33699;DHT22;20032;52.436;13.312;2023-05-10T06:11:57;14.10;97.20
33699;DHT22;20032;52.436;13.312;2023-05-10T06:14:22;14.20;97.40
33699;DHT22;20032;52.436;13.312;2023-05-10T06:16:48;14.20;97.10
33699;DHT22;20032;52.436;13.312;2023-05-10T06:19:13;14.20;97.60
33699;DHT22;20032;52.436;13.312;2023-05-10T06:21:39;14.30;97.20
33699;DHT22;20032;52.436;13.312;2023-05-10T06:24:05;14.40;97.00
33699;DHT22;20032;52.436;13.312;2023-05-10T06:26:32;14.40;97.00
33699;DHT22;20032;52.436;13.312;2023-05-10T06:28:57;14.40;97.30
33699;DHT22;20032;52.436;13.312;2023-05-10T06:31:23;14.40;96.90
33699;DHT22;20032;52.436;13.312;2023-05-10T06:33:48;14.40;96.60
33699;DHT22;20032;52.436;13.312;2023-05-10T06:36:14;14.50;96.90
33699;DHT22;20032;52.436;13.312;2023-05-10T06:38:40;14.60;96.20
33699;DHT22;20032;52.436;13.312;2023-05-10T06:41:06;14.70;96.20
33699;DHT22;20032;52.436;13.312;2023-05-10T06:43:31;14.70;96.20
33699;DHT22;20032;52.436;13.312;2023-05-10T06:45:57;14.70;96.40
33699;DHT22;20032;52.436;13.312;2023-05-10T06:48:23;14.70;96.40
33699;DHT22;20032;52.436;13.312;2023-05-10T06:50:49;14.80;96.50
33699;DHT22;20032;52.436;13.312;2023-05-10T06:53:14;14.80;96.00
33699;DHT22;20032;52.436;13.312;2023-05-10T06:55:40;14.90;96.40
33699;DHT22;20032;52.436;13.312;2023-05-10T06:58:06;14.90;96.20
33699;DHT22;20032;52.436;13.312;2023-05-10T07:00:32;15.00;96.30
33699;DHT22;20032;52.436;13.312;2023-05-10T07:02:57;15.10;96.00
33699;DHT22;20032;52.436;13.312;2023-05-10T07:05:23;15.20;95.70
33699;DHT22;20032;52.436;13.312;2023-05-10T07:07:49;15.20;95.70
33699;DHT22;20032;52.436;13.312;2023-05-10T07:10:14;15.20;95.80
33699;DHT22;20032;52.436;13.312;2023-05-10T07:12:40;15.30;95.40
33699;DHT22;20032;52.436;13.312;2023-05-10T07:15:06;15.20;95.70
33699;DHT22;20032;52.436;13.312;2023-05-10T07:17:33;15.30;95.60
33699;DHT22;20032;52.436;13.312;2023-05-10T07:19:59;15.40;95.60
33699;DHT22;20032;52.436;13.312;2023-05-10T07:22:26;15.50;95.30
33699;DHT22;20032;52.436;13.312;2023-05-10T07:24:51;15.50;95.10
33699;DHT22;20032;52.436;13.312;2023-05-10T07:27:17;15.50;94.80
33699;DHT22;20032;52.436;13.312;2023-05-10T07:29:42;15.70;94.90
33699;DHT22;20032;52.436;13.312;2023-05-10T07:32:08;15.80;94.50
33699;DHT22;20032;52.436;13.312;2023-05-10T07:34:33;15.90;94.70
33699;DHT22;20032;52.436;13.312;2023-05-10T07:37:00;16.00;94.10
33699;DHT22;20032;52.436;13.312;2023-05-10T07:39:26;16.10;94.30
33699;DHT22;20032;52.436;13.312;2023-05-10T07:41:52;16.30;94.40
33699;DHT22;20032;52.436;13.312;2023-05-10T07:44:18;16.50;94.20
33699;DHT22;20032;52.436;13.312;2023-05-10T07:46:45;16.60;93.60
33699;DHT22;20032;52.436;13.312;2023-05-10T07:49:11;16.50;93.30
33699;DHT22;20032;52.436;13.312;2023-05-10T07:51:36;16.50;93.50
33699;DHT22;20032;52.436;13.312;2023-05-10T07:54:02;16.60;93.50
33699;DHT22;20032;52.436;13.312;2023-05-10T07:56:29;16.70;93.50
33699;DHT22;20032;52.436;13.312;2023-05-10T07:58:56;16.90;93.30
33699;DHT22;20032;52.436;13.312;2023-05-10T08:01:22;16.90;93.10
33699;DHT22;20032;52.436;13.312;2023-05-10T08:03:48;17.10;93.10
33699;DHT22;20032;52.436;13.312;2023-05-10T08:06:15;17.20;92.80
33699;DHT22;20032;52.436;13.312;2023-05-10T08:08:41;17.30;92.70
33699;DHT22;20032;52.436;13.312;2023-05-10T08:11:06;17.30;92.70
33699;DHT22;20032;52.436;13.312;2023-05-10T08:13:32;17.20;92.70
33699;DHT22;20032;52.436;13.312;2023-05-10T08:15:58;17.20;93.00
33699;DHT22;20032;52.436;13.312;2023-05-10T08:18:23;17.20;92.90
33699;DHT22;20032;52.436;13.312;2023-05-10T08:20:48;17.40;92.90
33699;DHT22;20032;52.436;13.312;2023-05-10T08:23:14;17.30;92.80
33699;DHT22;20032;52.436;13.312;2023-05-10T08:25:40;17.50;92.50
33699;DHT22;20032;52.436;13.312;2023-05-10T08:28:05;17.50;92.80
33699;DHT22;20032;52.436;13.312;2023-05-10T08:30:31;17.80;92.10
33699;DHT22;20032;52.436;13.312;2023-05-10T08:32:57;17.70;92.60
33699;DHT22;20032;52.436;13.312;2023-05-10T08:35:22;17.90;92.50
33699;DHT22;20032;52.436;13.312;2023-05-10T08:37:48;17.80;92.00
33699;DHT22;20032;52.436;13.312;2023-05-10T08:40:14;17.80;93.00
33699;DHT22;20032;52.436;13.312;2023-05-10T08:42:49;18.00;92.30
33699;DHT22;20032;52.436;13.312;2023-05-10T08:45:17;18.20;92.10
33699;DHT22;20032;52.436;13.312;2023-05-10T08:47:44;18.40;92.60
33699;DHT22;20032;52.436;13.312;2023-05-10T08:50:11;18.40;91.70
33699;DHT22;20032;52.436;13.312;2023-05-10T08:52:38;18.30;91.70
33699;DHT22;20032;52.436;13.312;2023-05-10T08:55:05;18.10;91.60
33699;DHT22;20032;52.436;13.312;2023-05-10T08:57:31;18.20;92.10
33699;DHT22;20032;52.436;13.312;2023-05-10T08:59:57;18.40;92.00
33699;DHT22;20032;52.436;13.312;2023-05-10T09:02:24;18.40;91.30
33699;DHT22;20032;52.436;13.312;2023-05-10T09:04:50;18.60;91.50
33699;DHT22;20032;52.436;13.312;2023-05-10T09:07:16;18.70;91.10
33699;DHT22;20032;52.436;13.312;2023-05-10T09:09:42;18.60;91.20
33699;DHT22;20032;52.436;13.312;2023-05-10T09:12:09;18.60;91.20
33699;DHT22;20032;52.436;13.312;2023-05-10T09:14:37;18.90;91.00
33699;DHT22;20032;52.436;13.312;2023-05-10T09:17:03;19.00;91.30
33699;DHT22;20032;52.436;13.312;2023-05-10T09:19:29;19.00;90.90
33699;DHT22;20032;52.436;13.312;2023-05-10T09:21:55;19.10;91.00
33699;DHT22;20032;52.436;13.312;2023-05-10T09:24:25;19.30;91.20
33699;DHT22;20032;52.436;13.312;2023-05-10T09:26:51;19.30;90.30
33699;DHT22;20032;52.436;13.312;2023-05-10T09:29:16;19.40;90.40
33699;DHT22;20032;52.436;13.312;2023-05-10T09:31:57;19.40;89.40
33699;DHT22;20032;52.436;13.312;2023-05-10T09:34:30;19.40;90.10
33699;DHT22;20032;52.436;13.312;2023-05-10T09:36:58;19.70;90.70
33699;DHT22;20032;52.436;13.312;2023-05-10T09:39:37;20.00;90.90
33699;DHT22;20032;52.436;13.312;2023-05-10T09:42:05;20.30;89.50
33699;DHT22;20032;52.436;13.312;2023-05-10T09:44:32;20.30;89.40
33699;DHT22;20032;52.436;13.312;2023-05-10T09:46:58;20.60;90.10
33699;DHT22;20032;52.436;13.312;2023-05-10T09:49:24;21.00;89.40
33699;DHT22;20032;52.436;13.312;2023-05-10T09:52:06;21.00;87.20
33699;DHT22;20032;52.436;13.312;2023-05-10T09:54:32;21.00;86.20
33699;DHT22;20032;52.436;13.312;2023-05-10T09:56:58;21.10;86.00
33699;DHT22;20032;52.436;13.312;2023-05-10T09:59:28;21.10;86.20
33699;DHT22;20032;52.436;13.312;2023-05-10T10:01:58;21.20;85.40
33699;DHT22;20032;52.436;13.312;2023-05-10T10:04:25;21.30;85.40
33699;DHT22;20032;52.436;13.312;2023-05-10T10:07:00;21.50;85.70
33699;DHT22;20032;52.436;13.312;2023-05-10T10:09:26;21.50;84.60
33699;DHT22;20032;52.436;13.312;2023-05-10T10:11:52;21.60;84.10
33699;DHT22;20032;52.436;13.312;2023-05-10T10:14:19;21.80;85.00
33699;DHT22;20032;52.436;13.312;2023-05-10T10:16:46;22.00;84.70
33699;DHT22;20032;52.436;13.312;2023-05-10T10:19:12;22.00;83.60
33699;DHT22;20032;52.436;13.312;2023-05-10T10:21:37;22.00;82.60
33699;DHT22;20032;52.436;13.312;2023-05-10T10:24:03;22.20;83.50
33699;DHT22;20032;52.436;13.312;2023-05-10T10:26:33;22.30;83.60
33699;DHT22;20032;52.436;13.312;2023-05-10T10:29:10;22.30;82.50
33699;DHT22;20032;52.436;13.312;2023-05-10T10:31:45;22.50;82.70
33699;DHT22;20032;52.436;13.312;2023-05-10T10:34:25;23.00;81.60
33699;DHT22;20032;52.436;13.312;2023-05-10T10:36:51;23.00;80.60
33699;DHT22;20032;52.436;13.312;2023-05-10T10:39:18;23.30;80.60
33699;DHT22;20032;52.436;13.312;2023-05-10T10:42:00;23.30;79.70
33699;DHT22;20032;52.436;13.312;2023-05-10T10:49:48;23.80;77.70
33699;DHT22;20032;52.436;13.312;2023-05-10T10:52:34;23.60;78.10
33699;DHT22;20032;52.436;13.312;2023-05-10T10:55:20;23.70;79.70
33699;DHT22;20032;52.436;13.312;2023-05-10T10:57:56;24.10;76.40
33699;DHT22;20032;52.436;13.312;2023-05-10T11:00:28;24.20;76.50
33699;DHT22;20032;52.436;13.312;2023-05-10T11:05:35;24.70;75.20
33699;DHT22;20032;52.436;13.312;2023-05-10T11:08:08;25.10;72.90
33699;DHT22;20032;52.436;13.312;2023-05-10T11:10:34;25.20;73.60
33699;DHT22;20032;52.436;13.312;2023-05-10T11:13:04;25.30;71.90
33699;DHT22;20032;52.436;13.312;2023-05-10T11:15:34;25.10;73.00
33699;DHT22;20032;52.436;13.312;2023-05-10T11:18:01;25.60;71.30
33699;DHT22;20032;52.436;13.312;2023-05-10T11:20:41;25.50;70.40
33699;DHT22;20032;52.436;13.312;2023-05-10T11:23:14;25.60;71.00
33699;DHT22;20032;52.436;13.312;2023-05-10T11:25:42;25.60;71.40
33699;DHT22;20032;52.436;13.312;2023-05-10T11:28:12;25.50;71.10
33699;DHT22;20032;52.436;13.312;2023-05-10T11:30:39;25.70;70.80
33699;DHT22;20032;52.436;13.312;2023-05-10T11:33:06;25.80;70.40
33699;DHT22;20032;52.436;13.312;2023-05-10T11:35:37;25.80;70.30
33699;DHT22;20032;52.436;13.312;2023-05-10T11:38:06;25.90;69.80
33699;DHT22;20032;52.436;13.312;2023-05-10T11:40:31;26.20;70.60
33699;DHT22;20032;52.436;13.312;2023-05-10T11:42:57;26.50;68.90
33699;DHT22;20032;52.436;13.312;2023-05-10T11:45:24;26.50;67.80
33699;DHT22;20032;52.436;13.312;2023-05-10T11:47:50;27.10;66.10
33699;DHT22;20032;52.436;13.312;2023-05-10T11:50:17;26.90;66.50
33699;DHT22;20032;52.436;13.312;2023-05-10T11:52:42;26.70;65.70
33699;DHT22;20032;52.436;13.312;2023-05-10T11:55:08;26.60;68.10
33699;DHT22;20032;52.436;13.312;2023-05-10T11:57:35;27.10;65.20
33699;DHT22;20032;52.436;13.312;2023-05-10T12:00:04;27.10;65.70
33699;DHT22;20032;52.436;13.312;2023-05-10T12:02:29;27.50;65.50
33699;DHT22;20032;52.436;13.312;2023-05-10T12:04:55;27.50;65.00
33699;DHT22;20032;52.436;13.312;2023-05-10T12:07:21;28.50;63.30
33699;DHT22;20032;52.436;13.312;2023-05-10T12:10:04;28.30;61.80
33699;DHT22;20032;52.436;13.312;2023-05-10T12:12:40;28.00;63.00
33699;DHT22;20032;52.436;13.312;2023-05-10T12:15:12;28.50;62.60
33699;DHT22;20032;52.436;13.312;2023-05-10T12:17:38;28.50;61.90
33699;DHT22;20032;52.436;13.312;2023-05-10T12:20:22;28.70;63.20
33699;DHT22;20032;52.436;13.312;2023-05-10T12:22:51;29.00;60.80
33699;DHT22;20032;52.436;13.312;2023-05-10T12:25:18;28.90;61.60
33699;DHT22;20032;52.436;13.312;2023-05-10T12:27:52;28.80;60.80
33699;DHT22;20032;52.436;13.312;2023-05-10T12:30:20;28.90;61.20
33699;DHT22;20032;52.436;13.312;2023-05-10T12:32:46;29.20;59.00
33699;DHT22;20032;52.436;13.312;2023-05-10T12:35:11;29.40;59.30
33699;DHT22;20032;52.436;13.312;2023-05-10T12:37:37;29.30;58.90
33699;DHT22;20032;52.436;13.312;2023-05-10T12:40:06;29.80;58.10
33699;DHT22;20032;52.436;13.312;2023-05-10T12:42:33;29.40;57.80
33699;DHT22;20032;52.436;13.312;2023-05-10T12:45:00;29.60;58.20
33699;DHT22;20032;52.436;13.312;2023-05-10T12:47:26;29.80;58.20
33699;DHT22;20032;52.436;13.312;2023-05-10T12:49:51;30.00;58.70
33699;DHT22;20032;52.436;13.312;2023-05-10T12:52:17;30.10;58.30
33699;DHT22;20032;52.436;13.312;2023-05-10T12:54:42;30.30;57.80
33699;DHT22;20032;52.436;13.312;2023-05-10T12:57:08;29.90;58.20
33699;DHT22;20032;52.436;13.312;2023-05-10T12:59:33;29.70;58.60
33699;DHT22;20032;52.436;13.312;2023-05-10T13:01:59;29.40;59.90
33699;DHT22;20032;52.436;13.312;2023-05-10T13:04:24;30.10;58.70
33699;DHT22;20032;52.436;13.312;2023-05-10T13:06:50;29.90;57.00
33699;DHT22;20032;52.436;13.312;2023-05-10T13:09:15;30.30;57.40
33699;DHT22;20032;52.436;13.312;2023-05-10T13:11:41;30.30;57.30
33699;DHT22;20032;52.436;13.312;2023-05-10T13:14:06;30.70;57.30
33699;DHT22;20032;52.436;13.312;2023-05-10T13:16:32;30.50;58.10
33699;DHT22;20032;52.436;13.312;2023-05-10T13:18:57;31.10;55.70
33699;DHT22;20032;52.436;13.312;2023-05-10T13:21:23;30.30;56.20
33699;DHT22;20032;52.436;13.312;2023-05-10T13:23:50;29.50;57.40
33699;DHT22;20032;52.436;13.312;2023-05-10T13:26:15;29.60;57.50
33699;DHT22;20032;52.436;13.312;2023-05-10T13:28:41;30.30;57.60
33699;DHT22;20032;52.436;13.312;2023-05-10T13:31:07;30.50;56.60
33699;DHT22;20032;52.436;13.312;2023-05-10T13:33:32;30.40;59.10
33699;DHT22;20032;52.436;13.312;2023-05-10T13:35:58;30.70;56.10
33699;DHT22;20032;52.436;13.312;2023-05-10T13:38:23;30.50;54.60
33699;DHT22;20032;52.436;13.312;2023-05-10T13:40:49;30.30;56.60
33699;DHT22;20032;52.436;13.312;2023-05-10T13:43:18;30.40;56.40
33699;DHT22;20032;52.436;13.312;2023-05-10T13:45:44;30.30;55.80
33699;DHT22;20032;52.436;13.312;2023-05-10T13:48:09;29.70;56.20
33699;DHT22;20032;52.436;13.312;2023-05-10T13:50:35;29.10;56.80
33699;DHT22;20032;52.436;13.312;2023-05-10T13:53:00;28.60;57.80
33699;DHT22;20032;52.436;13.312;2023-05-10T13:55:26;27.90;59.30
33699;DHT22;20032;52.436;13.312;2023-05-10T13:57:51;28.50;59.00
33699;DHT22;20032;52.436;13.312;2023-05-10T14:00:17;28.80;58.20
33699;DHT22;20032;52.436;13.312;2023-05-10T14:02:43;29.30;56.90
33699;DHT22;20032;52.436;13.312;2023-05-10T14:05:08;29.40;58.40
33699;DHT22;20032;52.436;13.312;2023-05-10T14:07:34;30.10;56.80
33699;DHT22;20032;52.436;13.312;2023-05-10T14:10:00;29.70;55.80
33699;DHT22;20032;52.436;13.312;2023-05-10T14:12:25;29.80;55.90
33699;DHT22;20032;52.436;13.312;2023-05-10T14:14:51;30.20;55.70
33699;DHT22;20032;52.436;13.312;2023-05-10T14:17:17;30.00;55.20
33699;DHT22;20032;52.436;13.312;2023-05-10T14:19:43;29.20;56.50
33699;DHT22;20032;52.436;13.312;2023-05-10T14:22:08;27.90;59.20
33699;DHT22;20032;52.436;13.312;2023-05-10T14:24:34;27.00;59.00
33699;DHT22;20032;52.436;13.312;2023-05-10T14:26:59;27.20;59.00
33699;DHT22;20032;52.436;13.312;2023-05-10T14:29:25;28.30;57.70
33699;DHT22;20032;52.436;13.312;2023-05-10T14:31:51;28.20;57.10
33699;DHT22;20032;52.436;13.312;2023-05-10T14:34:16;27.50;58.50
33699;DHT22;20032;52.436;13.312;2023-05-10T14:36:42;26.80;59.40
33699;DHT22;20032;52.436;13.312;2023-05-10T14:39:07;26.20;59.60
33699;DHT22;20032;52.436;13.312;2023-05-10T14:41:35;25.70;61.40
33699;DHT22;20032;52.436;13.312;2023-05-10T14:44:00;25.40;60.60
33699;DHT22;20032;52.436;13.312;2023-05-10T14:46:26;25.40;62.00
33699;DHT22;20032;52.436;13.312;2023-05-10T14:48:52;25.60;61.80
33699;DHT22;20032;52.436;13.312;2023-05-10T14:51:18;25.60;61.60
33699;DHT22;20032;52.436;13.312;2023-05-10T14:53:47;25.90;61.00
33699;DHT22;20032;52.436;13.312;2023-05-10T14:56:13;26.40;61.10
33699;DHT22;20032;52.436;13.312;2023-05-10T14:58:38;26.40;60.70
33699;DHT22;20032;52.436;13.312;2023-05-10T15:01:04;26.10;60.60
33699;DHT22;20032;52.436;13.312;2023-05-10T15:03:29;25.90;60.00
33699;DHT22;20032;52.436;13.312;2023-05-10T15:05:55;26.20;59.60
33699;DHT22;20032;52.436;13.312;2023-05-10T15:08:22;26.60;59.80
33699;DHT22;20032;52.436;13.312;2023-05-10T15:10:49;26.70;59.20
33699;DHT22;20032;52.436;13.312;2023-05-10T15:13:15;27.30;59.40
33699;DHT22;20032;52.436;13.312;2023-05-10T15:15:41;27.70;59.40
33699;DHT22;20032;52.436;13.312;2023-05-10T15:18:08;27.80;59.40
33699;DHT22;20032;52.436;13.312;2023-05-10T15:20:33;27.80;58.90
33699;DHT22;20032;52.436;13.312;2023-05-10T15:22:59;28.50;58.40
33699;DHT22;20032;52.436;13.312;2023-05-10T15:25:24;28.80;57.60
33699;DHT22;20032;52.436;13.312;2023-05-10T15:27:50;28.30;58.90
33699;DHT22;20032;52.436;13.312;2023-05-10T15:30:15;27.70;59.00